createdAt,value
2022-09-02T00:01:31.330Z,16.44
2022-09-02T00:04:17.436Z,16.12
2022-09-02T00:06:45.971Z,16.36
2022-09-02T00:09:15.897Z,16.25
2022-09-02T00:11:45.162Z,16.23
2022-09-02T00:14:19.308Z,16.11
2022-09-02T00:16:51.039Z,15.87
2022-09-02T00:19:21.301Z,15.98
2022-09-02T00:21:49.053Z,15.93
2022-09-02T00:24:17.293Z,15.86
2022-09-02T00:26:45.345Z,15.76
2022-09-02T00:29:14.547Z,15.73
2022-09-02T00:31:44.006Z,15.62
2022-09-02T00:34:12.085Z,15.57
2022-09-02T00:36:39.395Z,15.51
2022-09-02T00:39:08.655Z,15.47
2022-09-02T00:41:41.913Z,15.41
2022-09-02T00:44:12.133Z,15.46
2022-09-02T00:46:40.283Z,15.07
2022-09-02T00:49:25.914Z,15.41
2022-09-02T00:52:01.093Z,15.43
2022-09-02T00:54:30.893Z,15.36
2022-09-02T00:57:00.157Z,15.27
2022-09-02T00:59:46.302Z,15.20
2022-09-02T01:02:13.704Z,15.31
2022-09-02T01:04:43.029Z,15.18
2022-09-02T01:07:10.202Z,14.88
2022-09-02T01:09:37.884Z,15.11
2022-09-02T01:12:05.475Z,15.09
2022-09-02T01:14:32.509Z,15.04
2022-09-02T01:17:01.833Z,14.97
2022-09-02T01:19:34.866Z,14.83
2022-09-02T01:22:02.201Z,14.89
2022-09-02T01:24:31.826Z,14.88
2022-09-02T01:26:59.382Z,14.84
2022-09-02T01:29:28.200Z,14.79
2022-09-02T01:31:55.825Z,14.75
2022-09-02T01:34:23.315Z,14.72
2022-09-02T01:36:51.100Z,14.71
2022-09-02T01:39:18.516Z,14.60
2022-09-02T01:41:45.822Z,14.56
2022-09-02T01:44:14.469Z,14.60
2022-09-02T01:46:42.212Z,14.53
2022-09-02T01:49:09.367Z,14.49
2022-09-02T01:51:37.735Z,14.39
2022-09-02T01:54:05.583Z,14.34
2022-09-02T01:56:32.640Z,14.36
2022-09-02T01:59:02.498Z,14.31
2022-09-02T02:01:29.653Z,14.31
2022-09-02T02:03:57.291Z,14.30
2022-09-02T02:06:25.159Z,14.23
2022-09-02T02:08:53.567Z,14.36
2022-09-02T02:11:24.803Z,14.37
2022-09-02T02:13:58.787Z,14.30
2022-09-02T02:16:26.439Z,14.31
2022-09-02T02:18:53.679Z,14.24
2022-09-02T02:21:20.978Z,14.16
2022-09-02T02:23:48.492Z,14.31
2022-09-02T02:26:15.691Z,14.24
2022-09-02T02:28:43.087Z,13.97
2022-09-02T02:31:10.676Z,14.01
2022-09-02T02:33:38.475Z,13.94
2022-09-02T02:36:07.639Z,13.83
2022-09-02T02:38:36.655Z,13.80
2022-09-02T02:41:06.356Z,13.76
2022-09-02T02:43:37.294Z,13.63
2022-09-02T02:46:05.617Z,13.67
2022-09-02T02:48:34.058Z,13.64
2022-09-02T02:51:01.544Z,13.60
2022-09-02T02:53:31.102Z,13.35
2022-09-02T02:55:59.479Z,13.45
2022-09-02T02:58:26.691Z,13.40
2022-09-02T03:00:57.772Z,13.44
2022-09-02T03:03:25.138Z,13.26
2022-09-02T03:05:54.655Z,13.27
2022-09-02T03:08:22.947Z,13.24
2022-09-02T03:10:55.545Z,13.26
2022-09-02T03:13:26.719Z,13.22
2022-09-02T03:15:56.863Z,13.20
2022-09-02T03:18:24.034Z,12.92
2022-09-02T03:20:51.620Z,13.20
2022-09-02T03:23:19.206Z,13.14
2022-09-02T03:25:49.294Z,13.13
2022-09-02T03:28:24.922Z,13.17
2022-09-02T03:30:52.506Z,13.23
2022-09-02T03:33:19.707Z,13.27
2022-09-02T03:35:47.398Z,13.24
2022-09-02T03:38:15.680Z,13.08
2022-09-02T03:40:43.598Z,13.37
2022-09-02T03:43:10.994Z,13.44
2022-09-02T03:45:41.628Z,13.43
2022-09-02T03:48:14.085Z,13.38
2022-09-02T03:50:44.763Z,13.37
2022-09-02T03:53:19.742Z,13.31
2022-09-02T03:55:50.591Z,13.26
2022-09-02T03:58:18.731Z,13.14
2022-09-02T04:00:51.694Z,13.31
2022-09-02T04:03:20.594Z,12.72
2022-09-02T04:05:49.518Z,13.24
2022-09-02T04:08:18.500Z,13.02
2022-09-02T04:10:46.296Z,13.25
2022-09-02T04:13:13.388Z,13.20
2022-09-02T04:15:44.316Z,13.01
2022-09-02T04:18:12.497Z,12.64
2022-09-02T04:20:40.454Z,13.22
2022-09-02T04:23:07.931Z,13.19
2022-09-02T04:25:40.644Z,13.18
2022-09-02T04:28:08.832Z,13.18
2022-09-02T04:30:39.302Z,13.22
2022-09-02T04:33:06.912Z,13.20
2022-09-02T04:35:35.955Z,13.21
2022-09-02T04:38:03.284Z,13.20
2022-09-02T04:40:31.507Z,13.29
2022-09-02T04:42:59.402Z,13.25
2022-09-02T04:45:29.767Z,13.31
2022-09-02T04:47:57.661Z,13.43
2022-09-02T04:50:25.158Z,13.29
2022-09-02T04:52:59.753Z,13.33
2022-09-02T04:55:28.053Z,13.13
2022-09-02T04:57:56.028Z,13.37
2022-09-02T05:00:23.227Z,13.36
2022-09-02T05:02:50.598Z,13.41
2022-09-02T05:05:18.668Z,13.31
2022-09-02T05:07:46.427Z,13.40
2022-09-02T05:10:15.928Z,13.47
2022-09-02T05:12:44.300Z,13.45
2022-09-02T05:15:12.938Z,13.50
2022-09-02T05:17:40.321Z,13.53
2022-09-02T05:20:09.754Z,13.63
2022-09-02T05:22:37.775Z,13.59
2022-09-02T05:25:08.731Z,13.63
2022-09-02T05:27:36.546Z,13.70
2022-09-02T05:30:05.135Z,13.65
2022-09-02T05:32:37.819Z,13.59
2022-09-02T05:35:06.334Z,13.86
2022-09-02T05:37:35.562Z,13.88
2022-09-02T05:40:05.370Z,13.88
2022-09-02T05:42:34.678Z,13.99
2022-09-02T05:45:01.854Z,14.15
2022-09-02T05:47:28.947Z,14.20
2022-09-02T05:49:56.813Z,14.28
2022-09-02T05:52:26.047Z,14.37
2022-09-02T05:54:55.322Z,14.41
2022-09-02T05:57:23.799Z,14.53
2022-09-02T05:59:58.306Z,14.57
2022-09-02T06:02:41.500Z,14.76
2022-09-02T06:05:12.301Z,14.80
2022-09-02T06:07:44.283Z,14.85
2022-09-02T06:10:13.013Z,14.72
2022-09-02T06:12:42.715Z,15.11
2022-09-02T06:15:11.007Z,15.04
2022-09-02T06:17:40.445Z,15.24
2022-09-02T06:20:11.301Z,15.55
2022-09-02T06:22:41.025Z,15.70
2022-09-02T06:25:08.755Z,15.98
2022-09-02T06:27:38.149Z,16.14
2022-09-02T06:30:05.754Z,16.21
2022-09-02T06:32:33.048Z,16.39
2022-09-02T06:35:04.657Z,16.53
2022-09-02T06:37:34.998Z,16.66
2022-09-02T06:40:04.989Z,16.82
2022-09-02T06:42:32.872Z,16.86
2022-09-02T06:45:08.746Z,17.05
2022-09-02T06:47:37.926Z,17.07
2022-09-02T06:50:05.500Z,17.26
2022-09-02T06:52:32.909Z,17.24
2022-09-02T06:55:01.029Z,17.24
2022-09-02T06:57:31.422Z,17.40
2022-09-02T07:00:07.944Z,17.46
2022-09-02T07:02:36.382Z,17.48
2022-09-02T07:05:11.160Z,17.60
2022-09-02T07:07:40.922Z,17.72
2022-09-02T07:10:13.605Z,18.07
2022-09-02T07:12:44.604Z,18.01
2022-09-02T07:15:15.160Z,18.18
2022-09-02T07:17:43.617Z,18.45
2022-09-02T07:20:16.365Z,18.59
2022-09-02T07:25:25.447Z,18.71
2022-09-02T07:27:54.510Z,18.77
2022-09-02T07:30:23.070Z,18.87
2022-09-02T07:32:57.085Z,18.95
2022-09-02T07:35:26.656Z,18.93
2022-09-02T07:37:54.590Z,19.13
2022-09-02T07:40:23.492Z,19.18
2022-09-02T07:42:51.879Z,19.05
2022-09-02T07:45:20.673Z,19.10
2022-09-02T07:47:49.436Z,18.80
2022-09-02T07:50:20.752Z,19.11
2022-09-02T07:52:54.768Z,19.12
2022-09-02T07:55:23.339Z,19.06
2022-09-02T07:57:52.328Z,19.19
2022-09-02T08:00:23.024Z,19.20
2022-09-02T08:02:52.104Z,19.27
2022-09-02T08:05:26.556Z,19.50
2022-09-02T08:07:53.673Z,19.78
2022-09-02T08:10:21.338Z,20.07
2022-09-02T08:12:48.360Z,20.04
2022-09-02T08:15:16.347Z,20.13
2022-09-02T08:17:44.400Z,20.11
2022-09-02T08:20:13.098Z,20.19
2022-09-02T08:22:40.916Z,20.19
2022-09-02T08:25:08.429Z,20.09
2022-09-02T08:27:37.244Z,20.10
2022-09-02T08:30:06.599Z,19.96
2022-09-02T08:32:33.617Z,20.04
2022-09-02T08:35:02.876Z,19.77
2022-09-02T08:37:34.257Z,19.97
2022-09-02T08:40:06.533Z,19.87
2022-09-02T08:42:39.214Z,20.23
2022-09-02T08:45:14.172Z,20.30
2022-09-02T08:47:45.169Z,20.22
2022-09-02T08:50:15.899Z,20.39
2022-09-02T08:52:45.599Z,20.59
2022-09-02T08:55:21.459Z,20.76
2022-09-02T08:57:49.619Z,20.86
2022-09-02T09:00:17.329Z,20.97
2022-09-02T09:03:28.758Z,21.48
2022-09-02T09:06:16.959Z,21.74
2022-09-02T09:08:55.597Z,21.75
2022-09-02T09:11:44.886Z,22.28
2022-09-02T09:14:48.007Z,22.31
2022-09-02T09:17:39.517Z,22.40
2022-09-02T09:20:16.201Z,22.35
2022-09-02T09:22:43.713Z,22.27
2022-09-02T09:25:15.309Z,22.09
2022-09-02T09:27:46.012Z,21.99
2022-09-02T09:30:15.566Z,21.79
2022-09-02T09:32:47.668Z,21.69
2022-09-02T09:35:18.718Z,21.52
2022-09-02T09:37:48.337Z,21.60
2022-09-02T09:40:21.980Z,21.72
2022-09-02T09:42:56.748Z,21.79
2022-09-02T09:45:35.725Z,22.04
2022-09-02T09:48:18.301Z,22.38
2022-09-02T09:50:55.132Z,22.55
2022-09-02T09:53:23.992Z,22.55
2022-09-02T09:55:58.481Z,22.61
2022-09-02T09:58:32.247Z,22.46
2022-09-02T10:01:10.847Z,22.55
2022-09-02T10:03:43.018Z,22.82
2022-09-02T10:06:36.314Z,22.83
2022-09-02T10:09:18.662Z,22.69
2022-09-02T10:11:57.322Z,22.65
2022-09-02T10:14:31.154Z,22.68
2022-09-02T10:17:26.754Z,22.80
2022-09-02T10:20:07.997Z,22.46
2022-09-02T10:23:00.025Z,22.08
2022-09-02T10:25:49.095Z,22.24
2022-09-02T10:28:53.759Z,22.72
2022-09-02T10:31:26.632Z,23.24
2022-09-02T10:34:23.081Z,23.20
2022-09-02T10:37:07.172Z,23.06
2022-09-02T10:39:53.065Z,23.12
2022-09-02T10:42:34.675Z,23.16
2022-09-02T10:45:16.393Z,23.02
2022-09-02T10:47:54.366Z,23.22
2022-09-02T10:50:49.550Z,23.50
2022-09-02T10:53:31.571Z,23.54
2022-09-02T10:56:21.430Z,23.77
2022-09-02T10:59:01.464Z,24.02
2022-09-02T11:01:54.804Z,23.82
2022-09-02T11:05:01.230Z,23.62
2022-09-02T11:07:40.984Z,23.64
2022-09-02T11:10:19.809Z,23.87
2022-09-02T11:12:52.859Z,23.68
2022-09-02T11:15:29.551Z,23.71
2022-09-02T11:18:35.632Z,23.53
2022-09-02T11:21:10.360Z,23.62
2022-09-02T11:23:40.099Z,23.82
2022-09-02T11:26:28.229Z,24.03
2022-09-02T11:29:15.469Z,24.22
2022-09-02T11:32:10.308Z,24.29
2022-09-02T11:34:43.123Z,24.20
2022-09-02T11:38:05.789Z,24.37
2022-09-02T11:44:14.651Z,24.70
2022-09-02T11:46:54.934Z,24.97
2022-09-02T11:49:33.053Z,24.73
2022-09-02T11:52:29.157Z,24.19
2022-09-02T11:55:11.149Z,24.21
2022-09-02T11:57:41.372Z,24.42
2022-09-02T12:00:31.625Z,24.38
2022-09-02T12:03:11.943Z,24.03
2022-09-02T12:06:04.248Z,24.03
2022-09-02T12:08:35.316Z,24.43
2022-09-02T12:11:06.008Z,24.54
2022-09-02T12:16:21.054Z,24.26
2022-09-02T12:18:54.168Z,24.31
2022-09-02T12:21:23.460Z,24.13
2022-09-02T12:23:56.930Z,24.27
2022-09-02T12:26:36.023Z,24.64
2022-09-02T12:29:29.785Z,25.27
2022-09-02T12:31:57.298Z,25.30
2022-09-02T12:34:24.265Z,25.18
2022-09-02T12:37:03.534Z,24.85
2022-09-02T12:39:35.190Z,25.12
2022-09-02T12:42:06.827Z,24.86
2022-09-02T12:44:53.995Z,24.54
2022-09-02T12:47:32.305Z,24.39
2022-09-02T12:50:17.347Z,24.49
2022-09-02T12:52:49.482Z,24.50
2022-09-02T12:55:16.692Z,24.45
2022-09-02T12:57:52.943Z,24.22
2022-09-02T13:00:27.569Z,24.30
2022-09-02T13:03:09.500Z,23.99
2022-09-02T13:05:58.262Z,24.25
2022-09-02T13:09:12.400Z,24.26
2022-09-02T13:12:17.342Z,24.03
2022-09-02T13:14:44.359Z,23.86
2022-09-02T13:17:36.769Z,23.98
2022-09-02T13:20:14.504Z,24.21
2022-09-02T13:23:10.871Z,24.37
2022-09-02T13:26:22.828Z,24.44
2022-09-02T13:29:22.024Z,24.44
2022-09-02T13:32:13.149Z,24.23
2022-09-02T13:34:44.497Z,24.21
2022-09-02T13:37:33.779Z,24.29
2022-09-02T13:40:06.790Z,24.22
2022-09-02T13:42:34.006Z,24.22
2022-09-02T13:45:12.098Z,24.21
2022-09-02T13:47:43.530Z,24.56
2022-09-02T13:50:14.747Z,24.75
2022-09-02T13:53:46.004Z,24.94
2022-09-02T13:55:31.873Z,24.64
2022-09-02T13:58:03.741Z,24.64
2022-09-02T14:00:39.854Z,24.24
2022-09-02T14:03:11.863Z,24.12
2022-09-02T14:05:47.378Z,24.20
2022-09-02T14:08:18.592Z,24.24
2022-09-02T14:10:49.156Z,23.96
2022-09-02T14:13:16.988Z,23.92
2022-09-02T14:15:45.031Z,24.08
2022-09-02T14:18:23.057Z,24.32
2022-09-02T14:21:19.086Z,24.43
2022-09-02T14:23:52.884Z,24.24
2022-09-02T14:26:28.436Z,24.25
2022-09-02T14:28:55.662Z,24.20
2022-09-02T14:31:26.692Z,24.13
2022-09-02T14:33:53.747Z,24.07
2022-09-02T14:36:21.311Z,24.13
2022-09-02T14:38:48.345Z,24.23
2022-09-02T14:41:18.287Z,24.14
2022-09-02T14:43:54.903Z,24.21
2022-09-02T14:46:27.003Z,24.20
2022-09-02T14:49:02.517Z,24.26
2022-09-02T14:51:43.797Z,24.16
2022-09-02T14:54:11.416Z,24.24
2022-09-02T14:56:47.049Z,24.30
2022-09-02T14:59:14.304Z,24.34
2022-09-02T15:01:46.696Z,24.15
2022-09-02T15:04:14.689Z,24.12
2022-09-02T15:06:45.140Z,23.97
2022-09-02T15:09:16.505Z,23.66
2022-09-02T15:11:49.058Z,23.68
2022-09-02T15:14:16.326Z,23.97
2022-09-02T15:16:43.383Z,24.04
2022-09-02T15:19:10.695Z,24.10
2022-09-02T15:21:37.786Z,24.14
2022-09-02T15:24:05.845Z,24.17
2022-09-02T15:26:32.871Z,23.84
2022-09-02T15:29:00.146Z,23.66
2022-09-02T15:31:27.224Z,23.54
2022-09-02T15:33:54.370Z,23.51
2022-09-02T15:36:21.597Z,23.82
2022-09-02T15:38:49.050Z,24.21
2022-09-02T15:41:18.899Z,24.78
2022-09-02T15:43:47.630Z,25.20
2022-09-02T15:46:30.636Z,25.47
2022-09-02T15:49:02.842Z,26.24
2022-09-02T15:51:30.781Z,26.86
2022-09-02T15:54:03.670Z,27.76
2022-09-02T15:56:32.618Z,28.56
2022-09-02T15:59:09.356Z,28.63
2022-09-02T16:01:42.153Z,28.94
2022-09-02T16:04:11.109Z,28.47
2022-09-02T16:06:40.710Z,28.50
2022-09-02T16:09:10.072Z,28.44
2022-09-02T16:11:42.278Z,28.90
2022-09-02T16:14:09.486Z,28.99
2022-09-02T16:16:37.405Z,29.08
2022-09-02T16:19:07.068Z,28.32
2022-09-02T16:21:35.205Z,27.44
2022-09-02T16:24:02.464Z,28.68
2022-09-02T16:26:34.967Z,28.98
2022-09-02T16:29:03.991Z,30.01
2022-09-02T16:31:32.563Z,30.39
2022-09-02T16:34:05.432Z,30.89
2022-09-02T16:36:34.603Z,31.19
2022-09-02T16:39:03.112Z,30.13
2022-09-02T16:41:35.774Z,30.68
2022-09-02T16:44:08.317Z,30.97
2022-09-02T16:46:36.210Z,30.28
2022-09-02T16:49:03.946Z,29.73
2022-09-02T16:51:31.077Z,29.90
2022-09-02T16:54:00.476Z,29.99
2022-09-02T16:56:28.189Z,30.70
2022-09-02T16:58:55.265Z,30.38
2022-09-02T17:01:23.250Z,30.46
2022-09-02T17:03:50.703Z,29.85
2022-09-02T17:06:18.486Z,29.49
2022-09-02T17:08:45.611Z,29.80
2022-09-02T17:11:25.877Z,29.65
2022-09-02T17:13:59.262Z,28.30
2022-09-02T17:16:30.638Z,26.69
2022-09-02T17:18:58.158Z,25.35
2022-09-02T17:21:45.106Z,24.63
2022-09-02T17:24:13.817Z,24.16
2022-09-02T17:26:43.507Z,23.86
2022-09-02T17:29:31.614Z,23.51
2022-09-02T17:32:00.395Z,23.36
2022-09-02T17:34:27.445Z,23.24
2022-09-02T17:36:54.495Z,23.05
2022-09-02T17:39:21.765Z,22.73
2022-09-02T17:41:54.513Z,22.87
2022-09-02T17:44:23.979Z,22.67
2022-09-02T17:46:51.540Z,22.68
2022-09-02T17:49:19.161Z,22.57
2022-09-02T17:51:47.322Z,22.38
2022-09-02T17:54:15.120Z,22.54
2022-09-02T17:56:54.728Z,22.11
2022-09-02T17:59:43.549Z,22.23
2022-09-02T18:02:37.974Z,22.00
2022-09-02T18:05:19.684Z,21.85
2022-09-02T18:07:50.726Z,21.71
2022-09-02T18:10:17.995Z,21.54
2022-09-02T18:12:45.031Z,21.44
2022-09-02T18:15:18.623Z,21.38
2022-09-02T18:17:49.960Z,21.23
2022-09-02T18:20:36.144Z,21.02
2022-09-02T18:23:22.629Z,20.89
2022-09-02T18:26:17.561Z,20.70
2022-09-02T18:29:06.439Z,20.65
2022-09-02T18:31:47.012Z,20.40
2022-09-02T18:34:20.977Z,20.15
2022-09-02T18:37:13.538Z,20.36
2022-09-02T18:40:04.425Z,20.26
2022-09-02T18:42:37.695Z,20.22
2022-09-02T18:45:28.180Z,20.14
2022-09-02T18:48:01.357Z,19.70
2022-09-02T18:50:50.921Z,19.85
2022-09-02T18:53:22.258Z,19.81
2022-09-02T18:55:52.019Z,19.88
2022-09-02T18:58:41.035Z,19.83
2022-09-02T19:01:19.078Z,19.60
2022-09-02T19:03:46.278Z,19.54
2022-09-02T19:06:25.441Z,19.52
2022-09-02T19:09:05.469Z,19.40
2022-09-02T19:11:35.602Z,19.39
2022-09-02T19:14:08.361Z,19.43
2022-09-02T19:16:38.829Z,19.31
2022-09-02T19:19:10.388Z,19.27
2022-09-02T19:21:51.621Z,19.14
2022-09-02T19:24:28.423Z,19.18
2022-09-02T19:27:03.786Z,19.09
2022-09-02T19:29:33.947Z,18.90
2022-09-02T19:32:01.274Z,18.90
2022-09-02T19:34:33.903Z,18.82
2022-09-02T19:37:01.518Z,18.87
2022-09-02T19:39:28.577Z,18.81
2022-09-02T19:41:55.673Z,18.62
2022-09-02T19:44:22.720Z,18.59
2022-09-02T19:47:42.157Z,18.35
2022-09-02T19:49:36.809Z,18.26
2022-09-02T19:52:04.058Z,18.14
2022-09-02T19:54:31.298Z,18.14
2022-09-02T19:56:58.350Z,18.06
2022-09-02T19:59:26.580Z,17.95
2022-09-02T20:01:53.883Z,17.82
2022-09-02T20:04:20.977Z,17.69
2022-09-02T20:06:48.068Z,17.65
2022-09-02T20:09:15.134Z,17.54
2022-09-02T20:11:44.219Z,17.78
2022-09-02T20:14:11.404Z,17.63
2022-09-02T20:16:38.654Z,17.55
2022-09-02T20:19:05.786Z,17.51
2022-09-02T20:21:42.213Z,17.46
2022-09-02T20:24:11.745Z,17.21
2022-09-02T20:26:52.184Z,17.26
2022-09-02T20:29:22.829Z,17.18
2022-09-02T20:32:29.706Z,16.97
2022-09-02T20:35:03.159Z,16.86
2022-09-02T20:37:54.250Z,16.82
2022-09-02T20:40:54.640Z,16.67
2022-09-02T20:43:47.230Z,16.55
2022-09-02T20:46:38.421Z,16.52
2022-09-02T20:49:13.009Z,16.45
2022-09-02T20:51:53.914Z,16.37
2022-09-02T20:54:35.575Z,16.33
2022-09-02T20:57:28.465Z,16.24
2022-09-02T21:00:12.307Z,16.10
2022-09-02T21:02:51.143Z,16.14
2022-09-02T21:05:24.746Z,15.77
2022-09-02T21:08:01.363Z,16.08
2022-09-02T21:10:45.974Z,16.09
2022-09-02T21:13:31.669Z,16.08
2022-09-02T21:16:08.991Z,15.96
2022-09-02T21:18:41.971Z,15.89
2022-09-02T21:21:25.016Z,15.75
2022-09-02T21:23:57.507Z,15.67
2022-09-02T21:26:49.357Z,15.55
2022-09-02T21:29:45.338Z,15.39
2022-09-02T21:32:21.217Z,15.60
2022-09-02T21:34:56.554Z,15.48
2022-09-02T21:37:26.576Z,15.42
2022-09-02T21:39:58.728Z,15.32
2022-09-02T21:42:45.247Z,15.22
2022-09-02T21:45:22.913Z,15.11
2022-09-02T21:48:10.198Z,15.07
2022-09-02T21:50:57.930Z,15.02
2022-09-02T21:53:57.078Z,14.94
2022-09-02T21:56:47.143Z,15.04
2022-09-02T21:59:34.447Z,15.03
2022-09-02T22:02:14.809Z,14.99
2022-09-02T22:04:59.178Z,14.88
2022-09-02T22:08:11.157Z,14.81
2022-09-02T22:11:14.994Z,14.92
2022-09-02T22:13:42.248Z,14.85
2022-09-02T22:16:45.727Z,14.71
2022-09-02T22:19:13.518Z,14.87
2022-09-02T22:21:49.210Z,14.99
2022-09-02T22:24:22.802Z,14.94
2022-09-02T22:26:55.431Z,14.85
2022-09-02T22:29:36.463Z,14.84
2022-09-02T22:32:08.911Z,14.86
2022-09-02T22:34:49.483Z,14.73
2022-09-02T22:37:23.924Z,14.61
2022-09-02T22:39:53.946Z,14.63
2022-09-02T22:42:35.973Z,14.73
2022-09-02T22:45:24.626Z,14.69
2022-09-02T22:48:17.458Z,14.13
2022-09-02T22:51:14.094Z,14.34
2022-09-02T22:53:45.950Z,14.10
2022-09-02T22:56:21.422Z,14.29
2022-09-02T22:59:01.487Z,14.28
2022-09-02T23:01:45.212Z,14.32
2022-09-02T23:04:32.488Z,14.29
2022-09-02T23:07:05.490Z,14.31
2022-09-02T23:09:33.820Z,14.29
2022-09-02T23:12:16.039Z,14.43
2022-09-02T23:14:59.853Z,14.30
2022-09-02T23:17:39.732Z,14.26
2022-09-02T23:20:10.471Z,14.38
2022-09-02T23:23:22.756Z,14.31
2022-09-02T23:26:09.611Z,14.35
2022-09-02T23:29:01.254Z,14.34
2022-09-02T23:31:47.414Z,14.39
2022-09-02T23:34:28.045Z,14.44
2022-09-02T23:37:04.529Z,14.39
2022-09-02T23:39:56.506Z,14.40
2022-09-02T23:42:24.674Z,14.38
2022-09-02T23:44:59.154Z,14.28
2022-09-02T23:47:39.928Z,14.37
2022-09-02T23:50:21.434Z,14.36
2022-09-02T23:53:02.895Z,14.40
2022-09-02T23:55:43.733Z,14.31
2022-09-02T23:58:34.511Z,14.30
